createdAt,value
2018-03-17T00:01:45.609Z,5.77
2018-03-17T00:04:13.957Z,5.03
2018-03-17T00:06:41.570Z,5.37
2018-03-17T00:09:09.155Z,4.70
2018-03-17T00:11:36.758Z,5.33
2018-03-17T00:14:05.114Z,5.90
2018-03-17T00:16:32.723Z,5.37
2018-03-17T00:19:00.308Z,6.40
2018-03-17T00:21:27.904Z,5.63
2018-03-17T00:23:56.303Z,5.60
2018-03-17T00:26:24.648Z,5.90
2018-03-17T00:28:52.281Z,5.90
2018-03-17T00:31:19.861Z,5.77
2018-03-17T00:33:47.470Z,6.03
2018-03-17T00:36:15.070Z,4.80
2018-03-17T00:38:42.673Z,5.20
2018-03-17T00:41:11.029Z,4.93
2018-03-17T00:43:38.649Z,6.03
2018-03-17T00:46:06.254Z,4.80
2018-03-17T00:48:34.633Z,5.97
2018-03-17T00:51:02.232Z,5.57
2018-03-17T00:53:29.850Z,5.30
2018-03-17T00:55:57.433Z,5.37
2018-03-17T00:58:25.768Z,4.90
2018-03-17T01:00:54.231Z,5.27
2018-03-17T01:03:22.243Z,4.67
2018-03-17T01:05:49.863Z,5.60
2018-03-17T01:08:17.458Z,4.30
2018-03-17T01:10:45.067Z,5.70
2018-03-17T01:13:12.655Z,4.67
2018-03-17T01:15:40.269Z,4.70
2018-03-17T01:18:07.860Z,4.77
2018-03-17T01:20:35.477Z,4.70
2018-03-17T01:23:03.830Z,5.87
2018-03-17T01:25:31.444Z,4.93
2018-03-17T01:27:59.019Z,5.77
2018-03-17T01:30:26.609Z,4.60
2018-03-17T01:32:54.213Z,5.60
2018-03-17T01:35:22.309Z,5.40
2018-03-17T01:37:49.927Z,5.30
2018-03-17T01:40:18.295Z,5.67
2018-03-17T01:42:46.686Z,4.90
2018-03-17T01:45:15.051Z,5.57
2018-03-17T01:47:43.437Z,4.83
2018-03-17T01:50:11.807Z,4.07
2018-03-17T01:52:40.180Z,4.30
2018-03-17T01:55:08.553Z,4.70
2018-03-17T01:57:36.916Z,3.73
2018-03-17T02:00:04.521Z,5.67
2018-03-17T02:02:32.108Z,5.70
2018-03-17T02:04:59.726Z,4.60
2018-03-17T02:07:28.077Z,5.57
2018-03-17T02:09:55.684Z,4.97
2018-03-17T02:12:24.656Z,4.80
2018-03-17T02:14:53.537Z,3.67
2018-03-17T02:17:21.906Z,4.60
2018-03-17T02:19:49.528Z,5.13
2018-03-17T02:22:17.171Z,4.33
2018-03-17T02:24:45.559Z,5.20
2018-03-17T02:27:13.149Z,5.87
2018-03-17T02:29:40.741Z,4.70
2018-03-17T02:32:09.153Z,5.60
2018-03-17T02:34:36.745Z,5.03
2018-03-17T02:37:04.386Z,4.93
2018-03-17T02:39:31.971Z,5.60
2018-03-17T02:41:59.585Z,5.97
2018-03-17T02:44:27.189Z,5.80
2018-03-17T02:46:54.798Z,6.03
2018-03-17T02:49:23.376Z,4.20
2018-03-17T02:51:51.029Z,4.70
2018-03-17T02:54:19.396Z,5.17
2018-03-17T02:56:47.772Z,5.53
2018-03-17T02:59:16.289Z,5.47
2018-03-17T03:01:43.819Z,5.33
2018-03-17T03:04:11.417Z,5.47
2018-03-17T03:06:39.026Z,5.13
2018-03-17T03:09:06.630Z,4.93
2018-03-17T03:11:34.234Z,4.87
2018-03-17T03:14:01.821Z,5.50
2018-03-17T03:16:30.215Z,4.50
2018-03-17T03:18:57.805Z,5.30
2018-03-17T03:21:26.187Z,3.43
2018-03-17T03:23:54.243Z,5.43
2018-03-17T03:26:22.328Z,4.70
2018-03-17T03:28:49.912Z,5.10
2018-03-17T03:31:17.505Z,6.50
2018-03-17T03:33:45.103Z,4.30
2018-03-17T03:36:12.677Z,5.70
2018-03-17T03:38:40.305Z,4.93
2018-03-17T03:41:07.889Z,6.50
2018-03-17T03:43:35.500Z,5.33
2018-03-17T03:46:03.860Z,4.80
2018-03-17T03:48:32.232Z,5.30
2018-03-17T03:50:59.809Z,5.30
2018-03-17T03:53:28.189Z,6.23
2018-03-17T03:55:56.528Z,4.93
2018-03-17T03:58:24.140Z,5.63
2018-03-17T04:00:52.343Z,6.63
2018-03-17T04:03:19.930Z,4.37
2018-03-17T04:05:47.557Z,4.97
2018-03-17T04:08:15.144Z,5.60
2018-03-17T04:10:42.775Z,5.03
2018-03-17T04:13:10.377Z,5.17
2018-03-17T04:15:38.769Z,5.50
2018-03-17T04:18:07.118Z,4.87
2018-03-17T04:20:34.737Z,5.60
2018-03-17T04:23:02.347Z,5.20
2018-03-17T04:25:29.945Z,4.97
2018-03-17T04:27:57.541Z,6.30
2018-03-17T04:30:25.135Z,5.93
2018-03-17T04:32:52.749Z,5.70
2018-03-17T04:35:20.343Z,4.20
2018-03-17T04:37:47.961Z,5.20
2018-03-17T04:40:15.536Z,5.50
2018-03-17T04:42:43.128Z,4.17
2018-03-17T04:45:10.760Z,4.87
2018-03-17T04:47:38.350Z,4.80
2018-03-17T04:50:06.008Z,4.60
2018-03-17T04:52:33.588Z,5.53
2018-03-17T04:55:01.962Z,5.33
2018-03-17T04:57:30.314Z,5.13
2018-03-17T04:59:57.933Z,4.60
2018-03-17T05:02:25.545Z,4.47
2018-03-17T05:04:54.240Z,5.10
2018-03-17T05:07:22.270Z,3.60
2018-03-17T05:09:49.864Z,4.20
2018-03-17T05:12:17.487Z,3.43
2018-03-17T05:14:45.079Z,4.80
2018-03-17T05:17:12.685Z,5.20
2018-03-17T05:19:40.280Z,5.73
2018-03-17T05:22:07.881Z,4.33
2018-03-17T05:24:36.228Z,4.67
2018-03-17T05:27:03.841Z,3.87
2018-03-17T05:29:31.416Z,4.80
2018-03-17T05:31:59.038Z,4.30
2018-03-17T05:34:27.409Z,4.33
2018-03-17T05:36:55.760Z,4.60
2018-03-17T05:39:24.613Z,5.37
2018-03-17T05:41:53.208Z,5.20
2018-03-17T05:44:20.826Z,3.43
2018-03-17T05:46:49.187Z,5.20
2018-03-17T05:49:16.812Z,4.20
2018-03-17T05:51:44.398Z,4.47
2018-03-17T05:54:12.040Z,5.27
2018-03-17T05:56:39.635Z,4.37
2018-03-17T05:59:08.044Z,5.10
2018-03-17T06:01:35.618Z,4.70
2018-03-17T06:04:03.211Z,4.83
2018-03-17T06:06:30.833Z,4.77
2018-03-17T06:08:58.429Z,4.77
2018-03-17T06:11:26.034Z,4.40
2018-03-17T06:13:53.938Z,4.70
2018-03-17T06:16:22.622Z,4.00
2018-03-17T06:18:50.243Z,4.50
2018-03-17T06:21:18.604Z,4.30
2018-03-17T06:23:46.981Z,4.97
2018-03-17T06:26:15.367Z,4.87
2018-03-17T06:28:43.717Z,5.23
2018-03-17T06:31:11.331Z,4.23
2018-03-17T06:33:38.941Z,5.00
2018-03-17T06:36:06.522Z,4.20
2018-03-17T06:38:34.896Z,4.80
2018-03-17T06:41:03.248Z,5.43
2018-03-17T06:43:30.864Z,4.97
2018-03-17T06:45:58.449Z,5.40
2018-03-17T06:48:26.059Z,4.60
2018-03-17T06:50:54.427Z,5.03
2018-03-17T06:53:22.824Z,3.93
2018-03-17T06:55:50.428Z,5.53
2018-03-17T06:58:18.114Z,4.60
2018-03-17T07:00:45.726Z,3.47
2018-03-17T07:03:13.353Z,4.07
2018-03-17T07:05:41.730Z,5.40
2018-03-17T07:08:10.913Z,5.63
2018-03-17T07:10:38.601Z,4.77
2018-03-17T07:13:06.964Z,4.90
2018-03-17T07:15:34.569Z,3.53
2018-03-17T07:18:02.141Z,5.23
2018-03-17T07:20:29.755Z,4.87
2018-03-17T07:22:58.136Z,4.63
2018-03-17T07:25:27.153Z,4.60
2018-03-17T07:27:55.479Z,4.20
2018-03-17T07:30:24.167Z,4.40
2018-03-17T07:32:52.306Z,4.90
2018-03-17T07:35:19.888Z,5.43
2018-03-17T07:37:47.519Z,5.10
2018-03-17T07:40:15.105Z,4.73
2018-03-17T07:42:42.746Z,4.13
2018-03-17T07:45:10.351Z,3.67
2018-03-17T07:47:37.968Z,5.53
2018-03-17T07:50:06.377Z,4.50
2018-03-17T07:52:34.005Z,4.40
2018-03-17T07:55:01.587Z,5.83
2018-03-17T07:57:29.208Z,5.10
2018-03-17T07:59:56.803Z,5.60
2018-03-17T08:02:24.440Z,5.73
2018-03-17T08:04:53.128Z,5.80
2018-03-17T08:07:20.757Z,6.10
2018-03-17T08:09:48.365Z,4.83
2018-03-17T08:12:15.962Z,5.03
2018-03-17T08:14:44.327Z,6.90
2018-03-17T08:17:11.910Z,5.17
2018-03-17T08:19:40.273Z,6.73
2018-03-17T08:22:07.875Z,8.07
2018-03-17T08:24:35.470Z,5.80
2018-03-17T08:27:03.088Z,3.97
2018-03-17T08:29:30.736Z,5.67
2018-03-17T08:31:58.335Z,9.40
2018-03-17T08:34:25.932Z,5.30
2018-03-17T08:36:54.694Z,6.03
2018-03-17T08:39:22.297Z,5.47
2018-03-17T08:41:49.929Z,5.50
2018-03-17T08:44:17.508Z,4.27
2018-03-17T08:46:45.897Z,4.30
2018-03-17T08:49:13.496Z,5.77
2018-03-17T08:51:41.112Z,6.90
2018-03-17T08:54:09.461Z,5.80
2018-03-17T08:56:37.081Z,5.70
2018-03-17T08:59:04.713Z,5.33
2018-03-17T09:01:32.321Z,6.27
2018-03-17T09:03:59.896Z,6.10
2018-03-17T09:06:27.533Z,6.70
2018-03-17T09:08:55.132Z,6.90
2018-03-17T09:11:22.716Z,5.20
2018-03-17T09:13:51.076Z,5.57
2018-03-17T09:16:19.417Z,6.70
2018-03-17T09:18:47.039Z,6.53
2018-03-17T09:21:14.652Z,5.97
2018-03-17T09:23:42.265Z,6.50
2018-03-17T09:26:09.859Z,5.70
2018-03-17T09:28:37.473Z,4.60
2018-03-17T09:31:05.051Z,6.10
2018-03-17T09:33:32.675Z,7.20
2018-03-17T09:36:01.017Z,6.80
2018-03-17T09:38:28.586Z,6.40
2018-03-17T09:40:56.196Z,5.97
2018-03-17T09:43:23.839Z,5.97
2018-03-17T09:45:52.281Z,5.90
2018-03-17T09:48:19.872Z,5.50
2018-03-17T09:50:48.240Z,5.77
2018-03-17T09:53:15.839Z,6.30
2018-03-17T09:55:43.432Z,5.33
2018-03-17T09:58:11.001Z,6.30
2018-03-17T10:00:38.604Z,5.83
2018-03-17T10:03:06.173Z,5.03
2018-03-17T10:05:33.768Z,7.10
2018-03-17T10:08:01.363Z,6.13
2018-03-17T10:10:29.761Z,5.23
2018-03-17T10:12:57.356Z,6.33
2018-03-17T10:15:24.952Z,5.47
2018-03-17T10:17:53.446Z,7.53
2018-03-17T10:20:22.200Z,5.90
2018-03-17T10:22:49.819Z,5.87
2018-03-17T10:25:17.409Z,6.73
2018-03-17T10:27:45.027Z,5.70
2018-03-17T10:30:13.374Z,6.67
2018-03-17T10:32:40.999Z,6.33
2018-03-17T10:35:08.591Z,6.40
2018-03-17T10:37:36.229Z,6.23
2018-03-17T10:40:03.813Z,6.20
2018-03-17T10:42:31.401Z,7.20
2018-03-17T10:44:59.801Z,6.83
2018-03-17T10:47:27.399Z,6.60
2018-03-17T10:49:55.013Z,5.63
2018-03-17T10:52:23.654Z,6.27
2018-03-17T10:54:51.275Z,7.20
2018-03-17T10:57:18.852Z,6.37
2018-03-17T10:59:46.459Z,6.17
2018-03-17T11:02:14.872Z,6.47
2018-03-17T11:04:42.478Z,6.77
2018-03-17T11:07:10.064Z,6.80
2018-03-17T11:09:38.429Z,5.77
2018-03-17T11:12:06.792Z,7.20
2018-03-17T11:14:34.401Z,7.27
2018-03-17T11:17:02.040Z,5.53
2018-03-17T11:19:30.390Z,6.73
2018-03-17T11:21:58.020Z,7.90
2018-03-17T11:24:25.611Z,6.80
2018-03-17T11:26:54.511Z,7.30
2018-03-17T11:29:22.878Z,6.47
2018-03-17T11:31:50.509Z,7.90
2018-03-17T11:34:18.873Z,7.40
2018-03-17T11:36:47.101Z,7.10
2018-03-17T11:39:15.477Z,6.63
2018-03-17T11:41:43.901Z,7.83
2018-03-17T11:44:11.490Z,7.23
2018-03-17T11:46:39.089Z,7.57
2018-03-17T11:49:07.474Z,6.43
2018-03-17T11:51:35.816Z,6.80
2018-03-17T11:54:03.433Z,7.57
2018-03-17T11:56:31.035Z,6.00
2018-03-17T11:58:58.629Z,6.80
2018-03-17T12:01:26.997Z,7.10
2018-03-17T12:03:55.388Z,6.67
2018-03-17T12:06:24.345Z,6.73
2018-03-17T12:08:52.562Z,6.37
2018-03-17T12:11:20.145Z,5.97
2018-03-17T12:13:47.785Z,5.07
2018-03-17T12:16:15.393Z,6.10
2018-03-17T12:18:43.002Z,5.70
2018-03-17T12:21:10.620Z,6.00
2018-03-17T12:23:38.249Z,5.60
2018-03-17T12:26:05.856Z,6.77
2018-03-17T12:28:34.216Z,6.30
2018-03-17T12:31:01.833Z,5.67
2018-03-17T12:33:29.442Z,6.23
2018-03-17T12:35:57.056Z,6.60
2018-03-17T12:38:24.628Z,6.47
2018-03-17T12:40:52.267Z,5.90
2018-03-17T12:43:19.861Z,6.47
2018-03-17T12:45:47.465Z,5.07
2018-03-17T12:48:15.840Z,5.47
2018-03-17T12:50:44.203Z,6.90
2018-03-17T12:53:11.783Z,6.33
2018-03-17T12:55:39.391Z,5.93
2018-03-17T12:58:07.762Z,6.83
2018-03-17T13:00:35.384Z,6.87
2018-03-17T13:03:03.750Z,6.37
2018-03-17T13:05:32.138Z,5.17
2018-03-17T13:08:00.477Z,6.50
2018-03-17T13:10:28.083Z,6.60
2018-03-17T13:12:55.673Z,6.73
2018-03-17T13:15:24.596Z,6.70
2018-03-17T13:17:53.245Z,7.43
2018-03-17T13:20:20.853Z,5.50
2018-03-17T13:23:01.079Z,6.60
2018-03-17T13:25:28.698Z,6.43
2018-03-17T13:28:08.045Z,6.17
2018-03-17T13:30:35.684Z,7.57
2018-03-17T13:33:03.322Z,6.00
2018-03-17T13:35:42.912Z,6.63
2018-03-17T13:38:10.484Z,6.00
2018-03-17T13:40:44.989Z,7.20
2018-03-17T13:43:12.580Z,6.90
2018-03-17T13:45:40.179Z,7.17
2018-03-17T13:48:08.546Z,6.67
2018-03-17T13:50:36.125Z,6.20
2018-03-17T13:53:04.530Z,6.40
2018-03-17T13:55:32.120Z,6.57
2018-03-17T13:57:59.760Z,6.80
2018-03-17T14:00:27.360Z,6.83
2018-03-17T14:02:54.999Z,6.40
2018-03-17T14:05:23.453Z,6.47
2018-03-17T14:07:51.063Z,6.10
2018-03-17T14:10:19.412Z,6.50
2018-03-17T14:12:47.033Z,7.70
2018-03-17T14:15:14.618Z,7.00
2018-03-17T14:17:42.229Z,7.30
2018-03-17T14:20:10.592Z,6.60
2018-03-17T14:22:38.220Z,7.20
2018-03-17T14:25:05.796Z,7.10
2018-03-17T14:27:33.381Z,7.10
2018-03-17T14:30:01.856Z,6.60
2018-03-17T14:32:29.474Z,7.00
2018-03-17T14:34:57.104Z,7.10
2018-03-17T14:37:24.706Z,7.80
2018-03-17T14:39:53.109Z,7.47
2018-03-17T14:42:20.702Z,7.80
2018-03-17T14:44:48.308Z,7.77
2018-03-17T14:47:15.898Z,8.10
2018-03-17T14:49:43.553Z,7.20
2018-03-17T14:52:11.150Z,8.07
2018-03-17T14:54:38.749Z,9.07
2018-03-17T14:57:06.376Z,8.20
2018-03-17T14:59:33.952Z,8.00
2018-03-17T15:02:01.559Z,8.43
2018-03-17T15:04:29.161Z,8.60
2018-03-17T15:06:56.783Z,8.73
2018-03-17T15:09:25.158Z,7.23
2018-03-17T15:11:54.792Z,8.00
2018-03-17T15:14:23.858Z,6.97
2018-03-17T15:16:51.480Z,8.60
2018-03-17T15:19:20.724Z,6.43
2018-03-17T15:21:48.363Z,9.10
2018-03-17T15:24:15.989Z,9.33
2018-03-17T15:26:43.603Z,7.50
2018-03-17T15:29:11.972Z,8.70
2018-03-17T15:31:39.550Z,8.47
2018-03-17T15:34:07.943Z,7.60
2018-03-17T15:36:35.540Z,8.67
2018-03-17T15:39:03.149Z,7.80
2018-03-17T15:41:31.489Z,7.77
2018-03-17T15:43:59.093Z,8.20
2018-03-17T15:46:26.679Z,7.30
2018-03-17T15:48:54.280Z,8.03
2018-03-17T15:51:22.418Z,7.50
2018-03-17T15:53:50.025Z,8.93
2018-03-17T15:56:18.388Z,5.93
2018-03-17T15:58:45.960Z,8.67
2018-03-17T16:01:13.557Z,7.50
2018-03-17T16:03:41.137Z,6.70
2018-03-17T16:06:08.736Z,8.07
2018-03-17T16:08:36.336Z,7.80
2018-03-17T16:11:03.947Z,7.70
2018-03-17T16:13:31.525Z,8.37
2018-03-17T16:15:59.885Z,7.63
2018-03-17T16:18:27.466Z,7.67
2018-03-17T16:20:55.836Z,7.90
2018-03-17T16:23:24.204Z,7.50
2018-03-17T16:25:52.228Z,7.43
2018-03-17T16:28:19.829Z,8.03
2018-03-17T16:30:47.435Z,7.77
2018-03-17T16:33:15.051Z,8.77
2018-03-17T16:35:42.632Z,7.00
2018-03-17T16:38:11.016Z,7.40
2018-03-17T16:40:39.966Z,7.50
2018-03-17T16:43:07.842Z,6.17
2018-03-17T16:45:37.940Z,7.60
2018-03-17T16:48:06.875Z,8.33
2018-03-17T16:50:34.820Z,6.97
2018-03-17T16:53:02.593Z,5.73
2018-03-17T16:55:30.383Z,7.33
2018-03-17T16:57:58.923Z,7.67
2018-03-17T17:00:26.664Z,7.47
2018-03-17T17:02:55.130Z,6.83
2018-03-17T17:05:23.370Z,6.27
2018-03-17T17:07:52.310Z,6.87
2018-03-17T17:10:19.921Z,7.47
2018-03-17T17:12:48.272Z,7.57
2018-03-17T17:15:15.931Z,6.50
2018-03-17T17:17:43.572Z,5.97
2018-03-17T17:20:11.201Z,6.33
2018-03-17T17:22:38.826Z,6.60
2018-03-17T17:25:06.451Z,6.20
2018-03-17T17:27:34.066Z,6.90
2018-03-17T17:30:02.471Z,6.27
2018-03-17T17:32:30.079Z,6.60
2018-03-17T17:34:57.806Z,8.87
2018-03-17T17:37:25.872Z,6.63
2018-03-17T17:39:54.358Z,6.77
2018-03-17T17:42:22.666Z,6.03
2018-03-17T17:44:50.282Z,6.83
2018-03-17T17:47:17.907Z,6.70
2018-03-17T17:49:46.249Z,7.80
2018-03-17T17:52:13.880Z,6.30
2018-03-17T17:54:41.666Z,4.93
2018-03-17T17:57:09.281Z,5.90
2018-03-17T17:59:37.643Z,6.47
2018-03-17T18:02:06.036Z,6.53
2018-03-17T18:04:34.403Z,6.77
2018-03-17T18:07:02.792Z,6.03
2018-03-17T18:09:31.161Z,6.43
2018-03-17T18:11:59.536Z,5.73
2018-03-17T18:14:27.128Z,6.07
2018-03-17T18:16:54.760Z,7.17
2018-03-17T18:19:24.363Z,5.73
2018-03-17T18:21:52.734Z,7.57
2018-03-17T18:24:20.316Z,6.87
2018-03-17T18:26:48.709Z,6.37
2018-03-17T18:29:16.300Z,5.70
2018-03-17T18:31:43.952Z,6.10
2018-03-17T18:34:11.555Z,7.20
2018-03-17T18:36:39.214Z,5.40
2018-03-17T18:39:06.828Z,7.63
2018-03-17T18:41:34.454Z,8.77
2018-03-17T18:44:02.052Z,6.20
2018-03-17T18:46:29.661Z,6.70
2018-03-17T18:48:58.041Z,7.87
2018-03-17T18:51:26.495Z,7.10
2018-03-17T18:53:54.512Z,5.40
2018-03-17T18:56:23.235Z,8.27
2018-03-17T18:58:50.860Z,7.60
2018-03-17T19:01:18.437Z,6.17
2018-03-17T19:03:46.471Z,6.27
2018-03-17T19:06:14.921Z,6.80
2018-03-17T19:08:42.561Z,6.67
2018-03-17T19:11:10.160Z,6.20
2018-03-17T19:13:37.791Z,8.47
2018-03-17T19:16:05.405Z,7.27
2018-03-17T19:18:33.793Z,6.63
2018-03-17T19:21:01.378Z,6.97
2018-03-17T19:23:29.044Z,8.40
2018-03-17T19:25:56.639Z,6.73
2018-03-17T19:28:24.296Z,11.07
2018-03-17T19:30:52.336Z,6.73
2018-03-17T19:33:19.959Z,5.50
2018-03-17T19:35:47.542Z,6.50
2018-03-17T19:38:15.171Z,7.57
2018-03-17T19:40:42.772Z,6.70
2018-03-17T19:43:10.393Z,7.23
2018-03-17T19:45:38.039Z,6.40
2018-03-17T19:48:06.406Z,7.73
2018-03-17T19:50:34.159Z,6.37
2018-03-17T19:53:02.543Z,7.40
2018-03-17T19:55:30.157Z,6.70
2018-03-17T19:57:57.764Z,5.40
2018-03-17T20:00:25.408Z,6.83
2018-03-17T20:02:54.208Z,6.20
2018-03-17T20:05:22.352Z,7.77
2018-03-17T20:07:49.963Z,5.90
2018-03-17T20:10:18.337Z,6.80
2018-03-17T20:12:46.687Z,6.63
2018-03-17T20:15:14.320Z,8.57
2018-03-17T20:17:41.963Z,7.93
2018-03-17T20:20:09.932Z,5.17
2018-03-17T20:22:37.633Z,7.07
2018-03-17T20:25:05.336Z,6.10
2018-03-17T20:27:33.702Z,4.83
2018-03-17T20:30:01.339Z,6.33
2018-03-17T20:32:28.954Z,6.50
2018-03-17T20:34:56.555Z,5.37
2018-03-17T20:37:24.174Z,6.17
2018-03-17T20:39:52.272Z,6.67
2018-03-17T20:42:19.892Z,6.60
2018-03-17T20:44:48.234Z,7.00
2018-03-17T20:47:15.818Z,6.10
2018-03-17T20:49:44.180Z,6.70
2018-03-17T20:52:11.765Z,6.30
2018-03-17T20:54:40.220Z,6.87
2018-03-17T20:57:07.806Z,5.37
2018-03-17T20:59:36.181Z,6.83
2018-03-17T21:02:04.539Z,7.63
2018-03-17T21:04:32.178Z,6.33
2018-03-17T21:06:59.754Z,6.77
2018-03-17T21:09:27.450Z,6.10
2018-03-17T21:11:55.078Z,6.30
2018-03-17T21:14:23.760Z,7.37
2018-03-17T21:16:51.362Z,7.70
2018-03-17T21:19:18.958Z,7.30
2018-03-17T21:21:46.560Z,7.70
2018-03-17T21:24:14.905Z,6.80
2018-03-17T21:26:42.528Z,7.10
2018-03-17T21:29:10.117Z,6.80
2018-03-17T21:31:37.728Z,8.40
2018-03-17T21:34:06.274Z,7.73
2018-03-17T21:36:33.904Z,6.77
2018-03-17T21:39:01.591Z,6.67
2018-03-17T21:41:29.186Z,6.87
2018-03-17T21:43:57.908Z,6.87
2018-03-17T21:46:25.556Z,7.67
2018-03-17T21:48:54.383Z,7.80
2018-03-17T21:51:23.151Z,6.27
2018-03-17T21:53:50.772Z,6.40
2018-03-17T21:56:19.144Z,7.40
2018-03-17T21:58:47.508Z,8.30
2018-03-17T22:01:15.086Z,6.77
2018-03-17T22:03:43.521Z,6.87
2018-03-17T22:06:11.134Z,7.37
2018-03-17T22:08:38.726Z,7.17
2018-03-17T22:11:06.376Z,6.77
2018-03-17T22:13:34.185Z,6.40
2018-03-17T22:16:02.555Z,6.13
2018-03-17T22:18:30.206Z,7.23
2018-03-17T22:20:57.832Z,8.90
2018-03-17T22:23:26.244Z,7.30
2018-03-17T22:25:53.824Z,7.70
2018-03-17T22:28:22.577Z,7.20
2018-03-17T22:30:50.220Z,7.40
2018-03-17T22:33:17.895Z,7.70
2018-03-17T22:35:45.440Z,7.50
2018-03-17T22:38:13.163Z,8.13
2018-03-17T22:40:40.792Z,8.50
2018-03-17T22:43:08.476Z,7.10
2018-03-17T22:45:36.066Z,8.20
2018-03-17T22:48:03.673Z,7.33
2018-03-17T22:50:31.292Z,7.10
2018-03-17T22:52:58.989Z,6.37
2018-03-17T22:55:26.589Z,7.63
2018-03-17T22:57:54.160Z,7.10
2018-03-17T23:00:23.563Z,7.20
2018-03-17T23:02:51.909Z,8.30
2018-03-17T23:05:19.514Z,7.10
2018-03-17T23:07:47.103Z,6.57
2018-03-17T23:10:14.778Z,7.17
2018-03-17T23:12:42.398Z,6.53
2018-03-17T23:15:09.997Z,8.73
2018-03-17T23:17:37.619Z,7.67
2018-03-17T23:20:05.241Z,7.10
2018-03-17T23:22:32.864Z,8.73
2018-03-17T23:25:00.446Z,6.20
2018-03-17T23:27:28.051Z,7.43
2018-03-17T23:29:56.476Z,6.40
2018-03-17T23:32:24.082Z,7.00
2018-03-17T23:34:53.148Z,7.47
2018-03-17T23:37:20.774Z,8.50
2018-03-17T23:39:48.360Z,7.23
2018-03-17T23:42:15.948Z,7.67
2018-03-17T23:44:44.336Z,8.10
2018-03-17T23:47:12.708Z,7.90
2018-03-17T23:49:41.104Z,8.30
2018-03-17T23:52:08.716Z,7.30
2018-03-17T23:54:36.300Z,7.60
2018-03-17T23:57:04.767Z,6.90
2018-03-17T23:59:32.446Z,8.27
